Anchor Point, AK (99556)

8:20 AM AKDT on September 16, 2014 (GMT -0800)
KAKHOMER5 | Change Station
CLOSE
Current Station
Personal Weather Station
Location: Homer, AK
Elevation: 1152 ft
Nearby Weather Stations

Elev 1152 ft 59.67 °N, 151.49 °W | Updated 51 seconds ago

Scattered Clouds
Scattered Clouds
48.8 °F
Feels Like 49 °F
N
0.0
Wind Variable Wind from South
Gusts 2.0 mph

Today
High -- | Low -- °F
--% Chance of Precip.
Yesterday
High -- | Low -- °F
Precip. -- in
7:38 AM 8:24 PM
Last Quarter, 44% visible
Pressure 29.72 in
Visibility 10.0 miles
Clouds Few 3900 ft
Scattered Clouds 7500 ft
Windchill 49 °F
Dew Point 45 °F
Humidity 86%
Rainfall 0.08 in
Snow Depth 4 in , 4 in , 1 in
UV 0 out of 12
Pollen Not available.
Air Quality Not available.
Flu Activity Not available.
METAR PAHO 161553Z 08005KT 10SM FEW039 SCT075 10/07 A2972 RMK AO2 SLP064 T01000067

More Conditions Fewer Conditions

Pressure 29.72 in
Visibility 10.0 miles
Clouds Few 3900 ft
Scattered Clouds 7500 ft
Windchill 49 °F
Dew Point 45 °F
Humidity 86%
Rainfall 0.08 in
Snow Depth 4 in , 4 in , 1 in
UV 0 out of 12
Pollen Not available.
Air Quality Not available.
Flu Activity Not available.
METAR PAHO 161553Z 08005KT 10SM FEW039 SCT075 10/07 A2972 RMK AO2 SLP064 T01000067

More Conditions Fewer Conditions

10-Day Weather Forecast

Almanac

Astronomy

Sep. 16, 2014 Rise Set
Actual Time 7:38 AM AKDT 8:24 PM AKDT
Civil Twilight 6:56 AM AKDT 9:05 PM AKDT
Nautical Twilight 6:04 AM AKDT 9:56 PM AKDT
Astronomical Twilight 5:07 AM AKDT 10:53 PM AKDT
Moon No Moon Rise 5:01 PM AKDT
Length of Visible Light 14h 09m
Length of Day
12h 46m
Tomorrow will be 5m 20s shorter.
Last Quarter, 44% of the Moon is Illuminated
Today
Last Quarter
Sep 24
New
Oct 1
First Quarter
Oct 8
Full
Oct 15
Last Quarter

Today's Extremes

State Highs State Lows

Community

WunderPhotos

Upload Photos

1,753,823 photos uploaded!

Nearby

Snow Depth

Station Depth Elevation
Atigun Pass 4 in 4800 ft
MF Bradley River 4 in 2300 ft
Upper Chena 1 in 2850 ft
Coldfoot 1 in 1040 ft
Grandview 0 in 1100 ft

Earthquake Activity

City Distance Mag. Time & Date
No recent earthquake activity has been reported nearby.
Minimum magnitude displayed is 2.5.

Coastal Water Temperatures

Place Temperature
No Stations Reporting

Nearby Weather Stations